createdAt,value
2018-05-09T00:00:29.631Z,15.70
2018-05-09T00:03:00.611Z,16.40
2018-05-09T00:05:30.787Z,16.40
2018-05-09T00:08:02.474Z,16.30
2018-05-09T00:10:32.909Z,16.30
2018-05-09T00:13:03.057Z,16.30
2018-05-09T00:15:33.662Z,16.30
2018-05-09T00:18:04.128Z,18.20
2018-05-09T00:20:34.179Z,16.00
2018-05-09T00:23:04.856Z,16.00
2018-05-09T00:25:34.885Z,16.00
2018-05-09T00:28:05.144Z,16.00
2018-05-09T00:30:35.881Z,16.10
2018-05-09T00:33:06.511Z,16.00
2018-05-09T00:35:37.509Z,15.90
2018-05-09T00:38:07.586Z,15.90
2018-05-09T00:40:37.634Z,15.90
2018-05-09T00:43:08.474Z,16.00
2018-05-09T00:45:40.055Z,15.90
2018-05-09T00:48:10.353Z,15.90
2018-05-09T00:50:40.648Z,15.90
2018-05-09T00:53:11.643Z,15.80
2018-05-09T00:55:42.113Z,15.80
2018-05-09T00:58:12.985Z,15.70
2018-05-09T01:00:43.658Z,15.70
2018-05-09T02:13:48.656Z,14.90
2018-05-09T02:16:21.154Z,14.90
2018-05-09T02:18:53.979Z,14.90
2018-05-09T02:28:43.124Z,14.90
2018-05-09T02:31:13.663Z,14.90
2018-05-09T02:33:44.046Z,14.90
2018-05-09T02:36:14.976Z,14.80
2018-05-09T02:38:46.106Z,14.90
2018-05-09T02:41:17.375Z,14.90
2018-05-09T02:43:49.300Z,14.80
2018-05-09T02:46:20.533Z,14.70
2018-05-09T02:48:50.728Z,14.70
2018-05-09T02:51:21.170Z,14.70
2018-05-09T02:53:52.241Z,14.60
2018-05-09T02:56:22.265Z,14.60
2018-05-09T02:58:52.544Z,14.60
2018-05-09T03:01:24.140Z,14.60
2018-05-09T03:04:00.820Z,14.70
2018-05-09T03:06:31.931Z,14.70
2018-05-09T03:09:02.818Z,14.60
2018-05-09T03:11:34.812Z,14.50
2018-05-09T03:14:05.429Z,14.50
2018-05-09T03:16:35.840Z,14.60
2018-05-09T03:19:06.713Z,14.60
2018-05-09T03:21:37.251Z,14.50
2018-05-09T03:24:08.230Z,14.50
2018-05-09T03:26:38.838Z,15.60
2018-05-09T03:29:10.391Z,13.10
2018-05-09T03:31:42.283Z,14.30
2018-05-09T03:34:13.356Z,14.30
2018-05-09T03:36:44.337Z,14.20
2018-05-09T03:39:15.515Z,14.20
2018-05-09T03:41:46.264Z,14.20
2018-05-09T03:44:17.025Z,14.40
2018-05-09T03:46:47.183Z,14.40
2018-05-09T03:49:17.590Z,14.40
2018-05-09T03:51:48.196Z,14.50
2018-05-09T03:54:19.654Z,14.50
2018-05-09T03:56:50.618Z,14.60
2018-05-09T03:59:21.032Z,14.60
2018-05-09T04:02:00.031Z,14.50
2018-05-09T04:06:43.689Z,14.30
2018-05-09T04:09:25.623Z,14.20
2018-05-09T04:11:57.710Z,14.10
2018-05-09T04:14:28.462Z,14.10
2018-05-09T04:17:00.081Z,14.20
2018-05-09T04:19:30.663Z,14.20
2018-05-09T04:22:02.078Z,14.30
2018-05-09T04:24:32.587Z,14.30
2018-05-09T04:27:02.671Z,14.20
2018-05-09T04:29:34.389Z,14.30
2018-05-09T04:32:04.936Z,14.30
2018-05-09T04:34:35.155Z,14.40
2018-05-09T04:37:06.570Z,14.50
2018-05-09T04:39:38.135Z,14.50
2018-05-09T04:42:08.395Z,15.10
2018-05-09T04:44:40.076Z,14.70
2018-05-09T04:47:10.528Z,14.70
2018-05-09T04:49:41.446Z,14.80
2018-05-09T04:52:12.641Z,14.80
2018-05-09T04:54:43.188Z,14.70
2018-05-09T04:57:14.395Z,14.70
2018-05-09T04:59:45.490Z,14.90
2018-05-09T05:02:18.158Z,15.00
2018-05-09T05:04:49.276Z,15.00
2018-05-09T05:07:19.475Z,15.10
2018-05-09T05:09:49.995Z,15.20
2018-05-09T05:12:20.831Z,15.20
2018-05-09T05:15:00.235Z,15.60
2018-05-09T05:17:30.971Z,15.60
2018-05-09T05:20:02.650Z,18.20
2018-05-09T05:22:33.718Z,19.70
2018-05-09T05:25:04.363Z,21.10
2018-05-09T05:27:36.056Z,22.20
2018-05-09T05:30:07.206Z,22.90
2018-05-09T05:32:39.306Z,23.90
2018-05-09T05:35:10.911Z,23.90
2018-05-09T05:37:42.517Z,25.20
2018-05-09T05:40:13.472Z,25.10
2018-05-09T05:42:46.148Z,25.70
2018-05-09T05:45:21.729Z,25.70
2018-05-09T05:47:53.985Z,25.40
2018-05-09T05:50:24.815Z,26.10
2018-05-09T05:52:58.520Z,25.40
2018-05-09T05:55:29.254Z,25.60
2018-05-09T05:58:00.138Z,26.30
2018-05-09T06:00:33.977Z,25.90
2018-05-09T06:03:09.181Z,26.00
2018-05-09T06:05:41.258Z,26.00
2018-05-09T06:08:12.752Z,26.60
2018-05-09T06:10:45.428Z,26.60
2018-05-09T06:13:16.661Z,26.90
2018-05-09T06:15:47.585Z,26.50
2018-05-09T06:18:18.235Z,25.60
2018-05-09T06:20:49.106Z,24.40
2018-05-09T06:23:21.274Z,21.50
2018-05-09T06:25:51.691Z,21.60
2018-05-09T06:28:22.099Z,21.00
2018-05-09T06:30:54.403Z,20.80
2018-05-09T06:33:25.432Z,19.20
2018-05-09T06:35:57.499Z,18.80
2018-05-09T06:38:31.899Z,18.50
2018-05-09T06:41:19.804Z,18.70
2018-05-09T06:43:52.084Z,18.70
2018-05-09T06:46:23.171Z,19.30
2018-05-09T06:48:54.396Z,19.60
2018-05-09T06:51:25.292Z,19.90
2018-05-09T06:53:56.351Z,19.50
2018-05-09T06:56:27.049Z,19.70
2018-05-09T06:58:59.152Z,19.90
2018-05-09T07:01:29.953Z,20.10
2018-05-09T07:04:09.781Z,20.10
2018-05-09T07:06:40.617Z,20.90
2018-05-09T07:09:16.980Z,19.50
2018-05-09T07:11:48.528Z,19.50
2018-05-09T07:14:19.307Z,19.70
2018-05-09T07:16:51.113Z,19.80
2018-05-09T07:19:22.894Z,19.90
2018-05-09T07:21:56.865Z,19.90
2018-05-09T07:24:29.119Z,20.20
2018-05-09T07:27:02.066Z,20.40
2018-05-09T07:29:34.460Z,20.30
2018-05-09T07:32:05.071Z,20.30
2018-05-09T07:34:37.307Z,20.30
2018-05-09T07:37:10.781Z,20.40
2018-05-09T07:39:42.449Z,19.30
2018-05-09T07:42:14.057Z,20.50
2018-05-09T07:44:45.594Z,20.50
2018-05-09T07:47:16.546Z,20.50
2018-05-09T07:49:49.992Z,20.50
2018-05-09T07:52:21.726Z,20.80
2018-05-09T07:54:53.135Z,21.00
2018-05-09T07:57:27.201Z,20.90
2018-05-09T07:59:59.497Z,21.00
2018-05-09T08:02:31.521Z,21.00
2018-05-09T08:05:04.973Z,21.10
2018-05-09T08:07:36.061Z,21.00
2018-05-09T08:10:07.091Z,20.90
2018-05-09T08:12:38.689Z,21.10
2018-05-09T08:15:17.433Z,21.10
2018-05-09T08:17:51.893Z,21.10
2018-05-09T08:20:27.966Z,21.10
2018-05-09T08:23:02.260Z,20.80
2018-05-09T08:25:33.707Z,20.80
2018-05-09T08:28:05.689Z,21.00
2018-05-09T08:30:36.749Z,20.90
2018-05-09T08:33:08.030Z,21.00
2018-05-09T08:35:39.633Z,21.30
2018-05-09T08:38:11.022Z,21.50
2018-05-09T08:40:42.917Z,21.30
2018-05-09T08:43:14.732Z,21.10
2018-05-09T08:45:46.468Z,21.70
2018-05-09T08:48:18.013Z,21.60
2018-05-09T08:50:54.625Z,21.90
2018-05-09T08:53:25.922Z,22.00
2018-05-09T08:55:56.605Z,22.10
2018-05-09T08:58:29.337Z,22.30
2018-05-09T09:01:01.089Z,22.30
2018-05-09T09:03:31.876Z,22.30
2018-05-09T09:06:03.864Z,22.30
2018-05-09T09:08:35.537Z,22.30
2018-05-09T09:11:10.680Z,22.30
2018-05-09T09:13:41.337Z,22.20
2018-05-09T09:16:11.439Z,22.30
2018-05-09T09:18:42.778Z,22.40
2018-05-09T09:21:19.716Z,22.60
2018-05-09T09:23:53.952Z,22.50
2018-05-09T09:26:25.854Z,22.50
2018-05-09T09:28:56.910Z,22.70
2018-05-09T09:31:27.841Z,22.60
2018-05-09T09:33:59.749Z,22.80
2018-05-09T09:36:30.808Z,22.80
2018-05-09T09:39:05.831Z,22.90
2018-05-09T09:41:40.956Z,22.80
2018-05-09T09:44:16.351Z,22.90
2018-05-09T09:46:48.112Z,22.80
2018-05-09T09:49:26.829Z,22.90
2018-05-09T09:51:58.496Z,23.00
2018-05-09T09:54:29.866Z,23.00
2018-05-09T09:57:00.805Z,23.20
2018-05-09T09:59:33.250Z,23.30
2018-05-09T10:02:06.905Z,23.30
2018-05-09T10:04:39.158Z,23.30
2018-05-09T10:07:12.710Z,23.40
2018-05-09T10:09:50.255Z,23.40
2018-05-09T10:12:21.308Z,23.40
2018-05-09T10:14:51.516Z,23.50
2018-05-09T10:17:23.786Z,23.50
2018-05-09T10:19:55.463Z,23.40
2018-05-09T10:22:26.208Z,23.50
2018-05-09T10:24:59.670Z,22.40
2018-05-09T10:27:31.684Z,23.50
2018-05-09T10:30:05.720Z,23.30
2018-05-09T10:32:39.121Z,23.30
2018-05-09T10:35:11.345Z,23.20
2018-05-09T10:37:42.189Z,23.30
2018-05-09T10:40:15.527Z,23.30
2018-05-09T10:42:46.563Z,23.40
2018-05-09T10:45:19.152Z,23.30
2018-05-09T10:47:50.298Z,23.30
2018-05-09T10:50:21.602Z,23.30
2018-05-09T10:52:57.785Z,23.30
2018-05-09T10:55:29.966Z,24.00
2018-05-09T10:58:00.962Z,23.50
2018-05-09T11:00:34.160Z,23.50
2018-05-09T11:03:06.733Z,23.50
2018-05-09T11:05:39.495Z,23.50
2018-05-09T11:08:10.757Z,22.20
2018-05-09T11:10:42.631Z,23.60
2018-05-09T11:13:16.116Z,23.80
2018-05-09T11:15:46.998Z,23.80
2018-05-09T11:18:17.980Z,23.80
2018-05-09T11:20:49.687Z,23.70
2018-05-09T11:23:29.008Z,23.60
2018-05-09T11:26:00.954Z,23.70
2018-05-09T11:28:32.341Z,23.60
2018-05-09T11:31:04.111Z,23.00
2018-05-09T11:33:35.948Z,23.20
2018-05-09T11:36:07.338Z,21.70
2018-05-09T11:38:37.893Z,23.50
2018-05-09T11:41:10.031Z,23.60
2018-05-09T11:43:41.325Z,23.60
2018-05-09T11:46:13.135Z,23.80
2018-05-09T11:48:44.959Z,23.80
2018-05-09T11:51:18.345Z,24.30
2018-05-09T11:53:51.743Z,24.30
2018-05-09T11:56:22.143Z,24.50
2018-05-09T11:58:53.946Z,24.60
2018-05-09T12:01:29.996Z,24.60
2018-05-09T12:04:00.839Z,24.60
2018-05-09T12:06:34.375Z,24.50
2018-05-09T12:09:07.236Z,24.30
2018-05-09T12:11:39.751Z,24.40
2018-05-09T12:14:13.474Z,24.30
2018-05-09T12:16:44.336Z,24.20
2018-05-09T12:19:15.841Z,24.00
2018-05-09T12:21:47.191Z,24.20
2018-05-09T12:24:18.088Z,24.10
2018-05-09T12:26:49.235Z,24.10
2018-05-09T12:29:20.473Z,24.10
2018-05-09T12:31:53.293Z,24.00
2018-05-09T12:34:23.916Z,23.90
2018-05-09T12:36:56.911Z,24.00
2018-05-09T12:39:27.977Z,24.00
2018-05-09T12:41:59.580Z,24.20
2018-05-09T12:44:31.528Z,24.40
2018-05-09T12:47:02.677Z,24.20
2018-05-09T12:49:33.860Z,24.10
2018-05-09T12:52:05.510Z,24.20
2018-05-09T12:54:37.325Z,24.40
2018-05-09T12:57:07.891Z,24.40
2018-05-09T12:59:41.795Z,24.40
2018-05-09T13:02:13.714Z,24.40
2018-05-09T13:04:45.440Z,24.70
2018-05-09T13:07:16.437Z,25.10
2018-05-09T13:09:47.465Z,25.40
2018-05-09T13:12:21.712Z,25.00
2018-05-09T13:14:52.615Z,25.10
2018-05-09T13:17:23.717Z,25.30
2018-05-09T13:19:55.411Z,25.30
2018-05-09T13:22:32.778Z,25.30
2018-05-09T13:25:04.120Z,24.90
2018-05-09T13:27:36.593Z,24.90
2018-05-09T13:30:08.453Z,25.10
2018-05-09T13:32:40.774Z,24.80
2018-05-09T13:35:11.856Z,24.80
2018-05-09T13:37:43.284Z,24.70
2018-05-09T13:40:16.989Z,24.80
2018-05-09T13:42:53.612Z,24.80
2018-05-09T13:45:27.014Z,24.80
2018-05-09T13:48:01.996Z,25.10
2018-05-09T13:50:33.448Z,25.60
2018-05-09T13:53:05.396Z,25.40
2018-05-09T13:55:36.470Z,26.00
2018-05-09T13:58:10.885Z,25.20
2018-05-09T14:00:43.744Z,25.60
2018-05-09T14:03:15.577Z,25.00
2018-05-09T14:05:47.557Z,25.40
2018-05-09T14:08:20.967Z,25.10
2018-05-09T14:10:51.710Z,25.00
2018-05-09T14:13:24.248Z,25.30
2018-05-09T14:15:56.505Z,25.80
2018-05-09T14:18:27.807Z,25.80
2018-05-09T14:20:59.313Z,25.80
2018-05-09T14:23:29.669Z,25.80
2018-05-09T14:26:00.846Z,25.80
2018-05-09T14:28:32.483Z,25.70
2018-05-09T14:31:04.184Z,25.70
2018-05-09T14:33:39.008Z,26.50
2018-05-09T14:36:10.874Z,26.80
2018-05-09T14:38:42.820Z,26.20
2018-05-09T14:41:14.180Z,25.90
2018-05-09T14:43:46.066Z,25.80
2018-05-09T14:46:17.051Z,25.90
2018-05-09T14:48:47.348Z,25.60
2018-05-09T14:51:19.458Z,25.50
2018-05-09T14:53:50.730Z,25.60
2018-05-09T14:56:22.040Z,26.40
2018-05-09T14:58:53.360Z,26.40
2018-05-09T15:01:25.813Z,26.60
2018-05-09T15:03:58.196Z,26.90
2018-05-09T15:06:30.897Z,26.00
2018-05-09T15:09:02.002Z,24.20
2018-05-09T15:11:34.223Z,23.60
2018-05-09T15:14:06.430Z,25.20
2018-05-09T15:16:38.984Z,25.30
2018-05-09T15:19:12.549Z,25.30
2018-05-09T15:21:45.671Z,26.90
2018-05-09T15:24:16.117Z,25.40
2018-05-09T15:26:51.139Z,25.30
2018-05-09T15:29:22.969Z,25.20
2018-05-09T15:31:55.253Z,25.20
2018-05-09T15:34:26.002Z,24.90
2018-05-09T15:37:03.302Z,24.80
2018-05-09T15:39:35.327Z,24.80
2018-05-09T15:42:05.835Z,24.80
2018-05-09T15:44:38.369Z,24.90
2018-05-09T15:47:09.220Z,24.60
2018-05-09T15:49:45.554Z,25.20
2018-05-09T15:52:16.168Z,25.30
2018-05-09T15:54:48.333Z,25.10
2018-05-09T15:57:21.141Z,25.10
2018-05-09T15:59:52.829Z,25.40
2018-05-09T16:02:24.808Z,25.20
2018-05-09T16:04:58.861Z,25.40
2018-05-09T16:07:31.053Z,25.40
2018-05-09T16:10:02.776Z,25.40
2018-05-09T16:12:33.241Z,24.60
2018-05-09T16:15:03.885Z,25.20
2018-05-09T16:17:34.467Z,25.30
2018-05-09T16:20:06.380Z,25.30
2018-05-09T16:22:38.430Z,25.30
2018-05-09T16:25:09.088Z,25.30
2018-05-09T16:27:40.087Z,25.30
2018-05-09T16:30:11.045Z,25.10
2018-05-09T16:32:42.288Z,25.20
2018-05-09T16:35:12.595Z,24.70
2018-05-09T16:37:43.489Z,25.50
2018-05-09T16:40:14.891Z,25.20
2018-05-09T16:42:45.250Z,25.20
2018-05-09T16:45:15.958Z,25.00
2018-05-09T16:47:46.949Z,24.80
2018-05-09T16:50:19.398Z,24.70
2018-05-09T16:52:49.964Z,24.70
2018-05-09T16:55:20.996Z,24.80
2018-05-09T16:57:52.288Z,24.80
2018-05-09T17:00:24.648Z,24.80
2018-05-09T17:02:55.372Z,24.80
2018-05-09T17:05:28.749Z,24.70
2018-05-09T17:08:05.721Z,24.50
2018-05-09T17:10:37.321Z,24.50
2018-05-09T17:13:09.254Z,24.00
2018-05-09T17:15:41.150Z,24.90
2018-05-09T17:18:13.072Z,24.90
2018-05-09T17:20:45.442Z,24.60
2018-05-09T17:23:24.971Z,24.60
2018-05-09T17:25:57.064Z,24.60
2018-05-09T17:28:28.365Z,24.40
2018-05-09T17:31:02.517Z,24.20
2018-05-09T17:33:35.143Z,24.00
2018-05-09T17:36:09.123Z,22.40
2018-05-09T17:38:42.663Z,23.50
2018-05-09T17:41:14.120Z,23.40
2018-05-09T17:43:45.324Z,23.30
2018-05-09T17:46:16.900Z,23.60
2018-05-09T17:48:48.291Z,23.60
2018-05-09T17:51:18.981Z,25.20
2018-05-09T17:53:49.973Z,23.60
2018-05-09T17:56:21.358Z,23.30
2018-05-09T17:58:52.675Z,23.00
2018-05-09T18:01:31.143Z,22.70
2018-05-09T18:04:02.716Z,22.50
2018-05-09T18:06:33.835Z,22.50
2018-05-09T18:09:05.974Z,22.30
2018-05-09T18:11:37.624Z,22.10
2018-05-09T18:14:08.793Z,22.00
2018-05-09T18:16:40.372Z,21.90
2018-05-09T18:19:11.157Z,21.80
2018-05-09T18:21:42.236Z,21.70
2018-05-09T18:24:13.650Z,21.70
2018-05-09T18:26:45.075Z,21.70
2018-05-09T18:29:16.216Z,22.00
2018-05-09T18:31:46.808Z,22.30
2018-05-09T18:34:18.125Z,22.70
2018-05-09T18:36:55.828Z,23.00
2018-05-09T18:39:29.725Z,23.20
2018-05-09T18:42:02.015Z,23.70
2018-05-09T18:44:33.243Z,23.10
2018-05-09T18:47:07.162Z,23.10
2018-05-09T18:49:39.880Z,23.10
2018-05-09T18:52:14.624Z,23.20
2018-05-09T18:54:48.815Z,23.30
2018-05-09T18:57:21.604Z,23.20
2018-05-09T18:59:54.496Z,23.30
2018-05-09T19:02:26.420Z,23.30
2018-05-09T19:04:59.577Z,23.20
2018-05-09T19:07:30.531Z,22.40
2018-05-09T19:10:01.356Z,23.10
2018-05-09T19:12:33.047Z,21.60
2018-05-09T19:15:04.824Z,23.10
2018-05-09T19:17:37.613Z,23.00
2018-05-09T19:20:09.999Z,22.90
2018-05-09T19:22:41.545Z,22.80
2018-05-09T19:25:13.078Z,22.80
2018-05-09T19:27:45.081Z,22.70
2018-05-09T19:30:16.773Z,22.70
2018-05-09T19:32:49.746Z,22.60
2018-05-09T19:35:23.010Z,22.60
2018-05-09T19:37:56.453Z,22.50
2018-05-09T19:40:27.415Z,22.40
2018-05-09T19:43:00.911Z,22.20
2018-05-09T19:45:33.663Z,22.10
2018-05-09T19:48:04.819Z,20.90
2018-05-09T19:50:38.219Z,22.10
2018-05-09T19:53:14.349Z,22.00
2018-05-09T19:55:47.679Z,21.90
2018-05-09T19:58:20.570Z,21.90
2018-05-09T20:00:53.038Z,21.80
2018-05-09T20:03:27.870Z,21.80
2018-05-09T20:06:01.852Z,21.80
2018-05-09T20:08:35.973Z,21.80
2018-05-09T20:11:14.527Z,21.70
2018-05-09T20:13:48.916Z,21.60
2018-05-09T20:16:22.228Z,21.50
2018-05-09T20:18:57.594Z,21.40
2018-05-09T20:21:32.098Z,21.40
2018-05-09T20:24:07.833Z,21.40
2018-05-09T20:26:41.598Z,21.30
2018-05-09T20:29:17.426Z,21.20
2018-05-09T20:32:57.529Z,21.20
2018-05-09T20:35:31.780Z,21.30
2018-05-09T20:38:06.372Z,21.20
2018-05-09T20:40:38.137Z,21.20
2018-05-09T20:43:08.558Z,21.10
2018-05-09T20:45:39.998Z,21.00
2018-05-09T20:48:13.271Z,21.10
2018-05-09T20:50:45.523Z,19.90
2018-05-09T20:53:18.470Z,21.10
2018-05-09T20:55:51.277Z,21.20
2018-05-09T20:58:25.167Z,21.10
2018-05-09T21:00:57.932Z,21.10
2018-05-09T21:03:31.908Z,20.90
2018-05-09T21:06:03.283Z,20.40
2018-05-09T21:08:38.099Z,20.30
2018-05-09T21:11:10.444Z,20.60
2018-05-09T21:13:41.560Z,20.90
2018-05-09T21:16:12.508Z,20.90
2018-05-09T21:18:42.942Z,21.00
2018-05-09T21:21:13.300Z,21.10
2018-05-09T21:23:44.970Z,21.10
2018-05-09T21:26:17.361Z,21.20
2018-05-09T21:28:49.563Z,21.20
2018-05-09T21:31:20.543Z,21.10
2018-05-09T21:33:55.220Z,21.10
2018-05-09T21:36:27.055Z,21.10
2018-05-09T21:38:58.851Z,21.20
2018-05-09T21:41:29.907Z,21.00
2018-05-09T21:44:00.913Z,20.90
2018-05-09T21:46:34.683Z,20.80
2018-05-09T21:49:06.509Z,21.00
2018-05-09T21:51:39.012Z,21.00
2018-05-09T21:54:13.718Z,21.00
2018-05-09T21:56:44.202Z,21.00
2018-05-09T21:59:15.394Z,20.90
2018-05-09T22:01:47.484Z,20.70
2018-05-09T22:04:19.218Z,20.70
2018-05-09T22:07:03.505Z,20.70
2018-05-09T22:09:35.423Z,20.60
2018-05-09T22:12:07.657Z,20.70
2018-05-09T22:14:49.103Z,20.60
2018-05-09T22:17:23.158Z,20.60
2018-05-09T22:19:56.477Z,20.60
2018-05-09T22:22:27.361Z,20.50
2018-05-09T22:24:58.179Z,20.40
2018-05-09T22:27:29.549Z,20.50
2018-05-09T22:30:01.229Z,20.40
2018-05-09T22:32:31.867Z,20.40
2018-05-09T22:35:03.943Z,20.00
2018-05-09T22:37:36.482Z,20.30
2018-05-09T22:40:08.824Z,20.20
2018-05-09T22:42:41.528Z,20.00
2018-05-09T22:45:13.235Z,20.00
2018-05-09T22:47:43.794Z,20.40
2018-05-09T22:50:15.045Z,19.80
2018-05-09T22:52:47.293Z,19.90
2018-05-09T22:55:19.818Z,19.90
2018-05-09T22:57:54.393Z,19.90
2018-05-09T23:00:27.545Z,19.90
2018-05-09T23:02:58.700Z,19.90
2018-05-09T23:05:29.657Z,19.80
2018-05-09T23:08:01.302Z,19.70
2018-05-09T23:10:31.736Z,19.70
2018-05-09T23:13:02.458Z,19.60
2018-05-09T23:15:34.284Z,18.00
2018-05-09T23:18:05.657Z,19.50
2018-05-09T23:20:35.906Z,19.50
2018-05-09T23:23:06.066Z,19.40
2018-05-09T23:25:36.499Z,19.40
2018-05-09T23:28:07.344Z,19.50
2018-05-09T23:30:40.136Z,19.60
2018-05-09T23:33:10.796Z,19.60
2018-05-09T23:35:41.889Z,19.50
2018-05-09T23:38:13.203Z,19.50
2018-05-09T23:40:43.756Z,19.40
2018-05-09T23:43:14.249Z,19.10
2018-05-09T23:45:45.731Z,19.20
2018-05-09T23:48:18.138Z,19.20
2018-05-09T23:50:48.844Z,19.10
2018-05-09T23:53:19.171Z,19.10
2018-05-09T23:55:51.473Z,20.10
2018-05-09T23:58:22.371Z,19.00
